sensor_id;sensor_type;location;lat;lon;timestamp;temperature;humidity
66740;DHT22;53653;52.188;8.602;2023-04-12T00:02:19;6.83;65.86
66740;DHT22;53653;52.188;8.602;2023-04-12T00:04:44;6.86;65.98
66740;DHT22;53653;52.188;8.602;2023-04-12T00:07:10;6.87;66.37
66740;DHT22;53653;52.188;8.602;2023-04-12T00:09:36;6.86;66.22
66740;DHT22;53653;52.188;8.602;2023-04-12T00:12:02;6.86;66.29
66740;DHT22;53653;52.188;8.602;2023-04-12T00:14:30;6.92;66.44
66740;DHT22;53653;52.188;8.602;2023-04-12T00:16:55;6.92;66.46
66740;DHT22;53653;52.188;8.602;2023-04-12T00:19:21;6.93;66.52
66740;DHT22;53653;52.188;8.602;2023-04-12T00:21:49;6.96;66.76
66740;DHT22;53653;52.188;8.602;2023-04-12T00:24:17;6.96;66.87
66740;DHT22;53653;52.188;8.602;2023-04-12T00:26:43;6.95;66.87
66740;DHT22;53653;52.188;8.602;2023-04-12T00:29:09;6.96;67.00
66740;DHT22;53653;52.188;8.602;2023-04-12T00:31:35;6.96;67.34
66740;DHT22;53653;52.188;8.602;2023-04-12T00:34:01;6.97;67.46
66740;DHT22;53653;52.188;8.602;2023-04-12T00:36:26;7.01;67.39
66740;DHT22;53653;52.188;8.602;2023-04-12T00:38:52;7.00;67.65
66740;DHT22;53653;52.188;8.602;2023-04-12T00:41:18;7.01;67.66
66740;DHT22;53653;52.188;8.602;2023-04-12T00:43:43;7.03;67.59
66740;DHT22;53653;52.188;8.602;2023-04-12T00:46:09;7.07;67.66
66740;DHT22;53653;52.188;8.602;2023-04-12T00:48:36;7.10;67.74
66740;DHT22;53653;52.188;8.602;2023-04-12T00:51:03;7.10;68.25
66740;DHT22;53653;52.188;8.602;2023-04-12T00:53:30;7.13;67.82
66740;DHT22;53653;52.188;8.602;2023-04-12T00:55:55;7.16;67.73
66740;DHT22;53653;52.188;8.602;2023-04-12T00:58:22;7.14;68.63
66740;DHT22;53653;52.188;8.602;2023-04-12T01:00:51;6.93;69.80
66740;DHT22;53653;52.188;8.602;2023-04-12T01:03:20;6.73;70.73
66740;DHT22;53653;52.188;8.602;2023-04-12T01:11:31;6.32;72.58
66740;DHT22;53653;52.188;8.602;2023-04-12T01:16:49;6.35;72.92
66740;DHT22;53653;52.188;8.602;2023-04-12T01:19:28;6.39;72.89
66740;DHT22;53653;52.188;8.602;2023-04-12T01:22:12;6.45;71.50
66740;DHT22;53653;52.188;8.602;2023-04-12T01:27:34;6.55;71.12
66740;DHT22;53653;52.188;8.602;2023-04-12T01:30:05;6.55;70.66
66740;DHT22;53653;52.188;8.602;2023-04-12T01:32:33;6.61;70.32
66740;DHT22;53653;52.188;8.602;2023-04-12T01:35:05;6.61;70.89
66740;DHT22;53653;52.188;8.602;2023-04-12T01:37:33;6.66;70.41
66740;DHT22;53653;52.188;8.602;2023-04-12T01:40:00;6.66;70.50
66740;DHT22;53653;52.188;8.602;2023-04-12T01:42:26;6.69;70.51
66740;DHT22;53653;52.188;8.602;2023-04-12T01:44:54;6.76;70.11
66740;DHT22;53653;52.188;8.602;2023-04-12T01:47:20;6.83;69.51
66740;DHT22;53653;52.188;8.602;2023-04-12T01:49:58;6.86;69.56
66740;DHT22;53653;52.188;8.602;2023-04-12T01:52:30;6.93;69.40
66740;DHT22;53653;52.188;8.602;2023-04-12T01:55:00;6.90;69.50
66740;DHT22;53653;52.188;8.602;2023-04-12T01:57:26;6.76;71.09
66740;DHT22;53653;52.188;8.602;2023-04-12T01:59:53;6.69;71.92
66740;DHT22;53653;52.188;8.602;2023-04-12T02:02:21;6.66;72.03
66740;DHT22;53653;52.188;8.602;2023-04-12T02:04:47;6.69;71.88
66740;DHT22;53653;52.188;8.602;2023-04-12T02:07:14;6.65;71.84
66740;DHT22;53653;52.188;8.602;2023-04-12T02:09:39;6.69;71.54
66740;DHT22;53653;52.188;8.602;2023-04-12T02:12:06;6.73;71.47
66740;DHT22;53653;52.188;8.602;2023-04-12T02:14:31;6.78;71.05
66740;DHT22;53653;52.188;8.602;2023-04-12T02:16:57;6.89;70.23
66740;DHT22;53653;52.188;8.602;2023-04-12T02:19:24;6.97;69.70
66740;DHT22;53653;52.188;8.602;2023-04-12T02:21:50;7.03;69.38
66740;DHT22;53653;52.188;8.602;2023-04-12T02:24:16;7.11;68.97
66740;DHT22;53653;52.188;8.602;2023-04-12T02:26:43;7.16;68.91
66740;DHT22;53653;52.188;8.602;2023-04-12T02:29:09;7.16;68.99
66740;DHT22;53653;52.188;8.602;2023-04-12T02:31:36;7.16;68.85
66740;DHT22;53653;52.188;8.602;2023-04-12T02:34:04;7.17;69.02
66740;DHT22;53653;52.188;8.602;2023-04-12T02:36:31;7.17;68.89
66740;DHT22;53653;52.188;8.602;2023-04-12T02:38:57;7.16;69.03
66740;DHT22;53653;52.188;8.602;2023-04-12T02:41:24;7.16;69.11
66740;DHT22;53653;52.188;8.602;2023-04-12T02:43:50;7.16;69.25
66740;DHT22;53653;52.188;8.602;2023-04-12T02:46:21;7.17;69.19
66740;DHT22;53653;52.188;8.602;2023-04-12T02:48:52;7.17;69.16
66740;DHT22;53653;52.188;8.602;2023-04-12T02:51:19;7.16;69.40
66740;DHT22;53653;52.188;8.602;2023-04-12T02:53:47;7.13;69.36
66740;DHT22;53653;52.188;8.602;2023-04-12T02:56:19;7.11;69.59
66740;DHT22;53653;52.188;8.602;2023-04-12T02:58:50;7.13;69.66
66740;DHT22;53653;52.188;8.602;2023-04-12T03:01:29;7.10;69.62
66740;DHT22;53653;52.188;8.602;2023-04-12T03:04:17;7.07;69.80
66740;DHT22;53653;52.188;8.602;2023-04-12T03:06:50;7.08;69.96
66740;DHT22;53653;52.188;8.602;2023-04-12T03:09:25;7.07;69.93
66740;DHT22;53653;52.188;8.602;2023-04-12T03:11:53;7.08;70.16
66740;DHT22;53653;52.188;8.602;2023-04-12T03:14:18;7.07;70.06
66740;DHT22;53653;52.188;8.602;2023-04-12T03:16:44;7.06;70.36
66740;DHT22;53653;52.188;8.602;2023-04-12T03:19:14;7.06;70.13
66740;DHT22;53653;52.188;8.602;2023-04-12T03:21:42;7.08;70.08
66740;DHT22;53653;52.188;8.602;2023-04-12T03:24:07;7.10;70.14
66740;DHT22;53653;52.188;8.602;2023-04-12T03:26:34;7.07;70.31
66740;DHT22;53653;52.188;8.602;2023-04-12T03:29:09;7.08;70.28
66740;DHT22;53653;52.188;8.602;2023-04-12T03:31:36;7.04;70.49
66740;DHT22;53653;52.188;8.602;2023-04-12T03:34:05;7.04;70.49
66740;DHT22;53653;52.188;8.602;2023-04-12T03:36:35;7.03;70.69
66740;DHT22;53653;52.188;8.602;2023-04-12T03:39:14;6.99;70.88
66740;DHT22;53653;52.188;8.602;2023-04-12T03:41:40;6.95;71.11
66740;DHT22;53653;52.188;8.602;2023-04-12T03:44:05;6.97;71.00
66740;DHT22;53653;52.188;8.602;2023-04-12T03:46:33;6.95;71.24
66740;DHT22;53653;52.188;8.602;2023-04-12T03:49:03;6.90;71.41
66740;DHT22;53653;52.188;8.602;2023-04-12T03:51:31;6.90;71.61
66740;DHT22;53653;52.188;8.602;2023-04-12T03:54:02;6.87;71.66
66740;DHT22;53653;52.188;8.602;2023-04-12T03:56:36;6.93;71.77
66740;DHT22;53653;52.188;8.602;2023-04-12T03:59:09;6.89;72.14
66740;DHT22;53653;52.188;8.602;2023-04-12T04:01:36;6.86;72.48
66740;DHT22;53653;52.188;8.602;2023-04-12T04:04:02;6.87;72.81
66740;DHT22;53653;52.188;8.602;2023-04-12T04:06:29;6.86;73.47
66740;DHT22;53653;52.188;8.602;2023-04-12T04:08:56;6.86;73.78
66740;DHT22;53653;52.188;8.602;2023-04-12T04:11:22;6.87;73.88
66740;DHT22;53653;52.188;8.602;2023-04-12T04:13:52;6.90;74.06
66740;DHT22;53653;52.188;8.602;2023-04-12T04:16:18;6.89;74.20
66740;DHT22;53653;52.188;8.602;2023-04-12T04:18:44;6.89;74.67
66740;DHT22;53653;52.188;8.602;2023-04-12T04:21:12;6.90;74.84
66740;DHT22;53653;52.188;8.602;2023-04-12T04:23:41;6.93;74.85
66740;DHT22;53653;52.188;8.602;2023-04-12T04:26:10;6.95;75.02
66740;DHT22;53653;52.188;8.602;2023-04-12T04:28:44;7.04;75.36
66740;DHT22;53653;52.188;8.602;2023-04-12T04:31:12;7.11;75.17
66740;DHT22;53653;52.188;8.602;2023-04-12T04:33:41;7.20;75.04
66740;DHT22;53653;52.188;8.602;2023-04-12T04:36:07;7.27;75.09
66740;DHT22;53653;52.188;8.602;2023-04-12T04:38:34;7.34;74.91
66740;DHT22;53653;52.188;8.602;2023-04-12T04:41:06;7.43;74.99
66740;DHT22;53653;52.188;8.602;2023-04-12T04:43:46;7.51;75.02
66740;DHT22;53653;52.188;8.602;2023-04-12T04:46:15;7.58;75.08
66740;DHT22;53653;52.188;8.602;2023-04-12T04:48:42;7.65;74.74
66740;DHT22;53653;52.188;8.602;2023-04-12T04:51:09;7.71;74.51
66740;DHT22;53653;52.188;8.602;2023-04-12T04:53:34;7.74;74.25
66740;DHT22;53653;52.188;8.602;2023-04-12T04:56:01;7.81;74.10
66740;DHT22;53653;52.188;8.602;2023-04-12T04:58:32;7.86;73.64
66740;DHT22;53653;52.188;8.602;2023-04-12T05:00:58;7.87;73.43
66740;DHT22;53653;52.188;8.602;2023-04-12T05:03:25;7.97;73.21
66740;DHT22;53653;52.188;8.602;2023-04-12T05:05:54;8.02;73.10
66740;DHT22;53653;52.188;8.602;2023-04-12T05:08:21;8.07;72.70
66740;DHT22;53653;52.188;8.602;2023-04-12T05:10:51;8.13;72.90
66740;DHT22;53653;52.188;8.602;2023-04-12T05:13:19;8.27;72.27
66740;DHT22;53653;52.188;8.602;2023-04-12T05:15:47;8.38;71.80
66740;DHT22;53653;52.188;8.602;2023-04-12T05:18:13;8.33;71.95
66740;DHT22;53653;52.188;8.602;2023-04-12T05:20:39;8.26;72.16
66740;DHT22;53653;52.188;8.602;2023-04-12T05:23:04;8.27;72.08
66740;DHT22;53653;52.188;8.602;2023-04-12T05:25:30;8.22;72.25
66740;DHT22;53653;52.188;8.602;2023-04-12T05:28:03;8.23;72.35
66740;DHT22;53653;52.188;8.602;2023-04-12T05:30:28;8.20;72.45
66740;DHT22;53653;52.188;8.602;2023-04-12T05:32:55;8.30;72.57
66740;DHT22;53653;52.188;8.602;2023-04-12T05:35:20;8.34;72.32
66740;DHT22;53653;52.188;8.602;2023-04-12T05:37:48;8.44;72.19
66740;DHT22;53653;52.188;8.602;2023-04-12T05:40:14;8.48;72.20
66740;DHT22;53653;52.188;8.602;2023-04-12T05:42:41;8.55;71.99
66740;DHT22;53653;52.188;8.602;2023-04-12T05:45:06;8.58;72.30
66740;DHT22;53653;52.188;8.602;2023-04-12T05:47:35;8.57;72.24
66740;DHT22;53653;52.188;8.602;2023-04-12T05:50:00;8.57;72.45
66740;DHT22;53653;52.188;8.602;2023-04-12T05:52:26;8.60;72.63
66740;DHT22;53653;52.188;8.602;2023-04-12T05:54:52;8.58;72.68
66740;DHT22;53653;52.188;8.602;2023-04-12T05:57:19;8.60;72.74
66740;DHT22;53653;52.188;8.602;2023-04-12T05:59:47;8.67;72.67
66740;DHT22;53653;52.188;8.602;2023-04-12T06:02:12;8.68;72.74
66740;DHT22;53653;52.188;8.602;2023-04-12T06:04:38;8.67;72.80
66740;DHT22;53653;52.188;8.602;2023-04-12T06:07:07;8.71;72.84
66740;DHT22;53653;52.188;8.602;2023-04-12T06:09:34;8.76;72.85
66740;DHT22;53653;52.188;8.602;2023-04-12T06:12:00;8.85;72.87
66740;DHT22;53653;52.188;8.602;2023-04-12T06:14:29;8.86;73.09
66740;DHT22;53653;52.188;8.602;2023-04-12T06:16:54;8.86;73.32
66740;DHT22;53653;52.188;8.602;2023-04-12T06:19:20;8.92;73.19
66740;DHT22;53653;52.188;8.602;2023-04-12T06:21:46;8.86;73.40
66740;DHT22;53653;52.188;8.602;2023-04-12T06:24:13;8.84;73.53
66740;DHT22;53653;52.188;8.602;2023-04-12T06:26:38;8.85;73.76
66740;DHT22;53653;52.188;8.602;2023-04-12T06:29:04;8.88;73.83
66740;DHT22;53653;52.188;8.602;2023-04-12T06:31:30;8.88;73.84
66740;DHT22;53653;52.188;8.602;2023-04-12T06:33:55;8.96;73.79
66740;DHT22;53653;52.188;8.602;2023-04-12T06:36:21;9.02;73.90
66740;DHT22;53653;52.188;8.602;2023-04-12T06:38:46;9.02;73.98
66740;DHT22;53653;52.188;8.602;2023-04-12T06:41:15;9.09;73.78
66740;DHT22;53653;52.188;8.602;2023-04-12T06:43:40;9.11;74.07
66740;DHT22;53653;52.188;8.602;2023-04-12T06:46:06;9.19;73.75
66740;DHT22;53653;52.188;8.602;2023-04-12T06:48:33;9.22;74.03
66740;DHT22;53653;52.188;8.602;2023-04-12T06:50:58;9.23;74.02
66740;DHT22;53653;52.188;8.602;2023-04-12T06:53:24;9.19;74.28
66740;DHT22;53653;52.188;8.602;2023-04-12T06:55:50;9.15;74.53
66740;DHT22;53653;52.188;8.602;2023-04-12T06:58:15;9.12;74.56
66740;DHT22;53653;52.188;8.602;2023-04-12T07:00:41;9.16;74.50
66740;DHT22;53653;52.188;8.602;2023-04-12T07:03:08;9.12;74.85
66740;DHT22;53653;52.188;8.602;2023-04-12T07:05:36;9.11;74.92
66740;DHT22;53653;52.188;8.602;2023-04-12T07:08:02;9.11;75.78
66740;DHT22;53653;52.188;8.602;2023-04-12T07:10:27;9.09;76.57
66740;DHT22;53653;52.188;8.602;2023-04-12T07:12:53;9.18;76.15
66740;DHT22;53653;52.188;8.602;2023-04-12T07:15:18;9.15;77.11
66740;DHT22;53653;52.188;8.602;2023-04-12T07:17:44;9.01;77.07
66740;DHT22;53653;52.188;8.602;2023-04-12T07:20:10;9.09;77.26
66740;DHT22;53653;52.188;8.602;2023-04-12T07:22:36;9.01;77.90
66740;DHT22;53653;52.188;8.602;2023-04-12T07:25:01;9.03;77.66
66740;DHT22;53653;52.188;8.602;2023-04-12T07:27:29;8.96;78.80
66740;DHT22;53653;52.188;8.602;2023-04-12T07:29:55;8.92;79.73
66740;DHT22;53653;52.188;8.602;2023-04-12T07:32:22;8.96;80.55
66740;DHT22;53653;52.188;8.602;2023-04-12T07:34:47;8.98;80.35
66740;DHT22;53653;52.188;8.602;2023-04-12T07:37:13;8.91;81.68
66740;DHT22;53653;52.188;8.602;2023-04-12T07:39:38;8.84;81.84
66740;DHT22;53653;52.188;8.602;2023-04-12T07:42:05;8.82;82.02
66740;DHT22;53653;52.188;8.602;2023-04-12T07:44:31;8.79;82.18
66740;DHT22;53653;52.188;8.602;2023-04-12T07:46:58;8.72;83.33
66740;DHT22;53653;52.188;8.602;2023-04-12T07:49:23;8.69;83.44
66740;DHT22;53653;52.188;8.602;2023-04-12T07:51:49;8.65;83.20
66740;DHT22;53653;52.188;8.602;2023-04-12T07:54:14;8.69;83.62
66740;DHT22;53653;52.188;8.602;2023-04-12T07:56:40;8.71;83.60
66740;DHT22;53653;52.188;8.602;2023-04-12T07:59:06;8.81;83.80
66740;DHT22;53653;52.188;8.602;2023-04-12T08:01:31;8.85;84.62
66740;DHT22;53653;52.188;8.602;2023-04-12T08:03:57;8.84;83.86
66740;DHT22;53653;52.188;8.602;2023-04-12T08:06:22;8.88;85.56
66740;DHT22;53653;52.188;8.602;2023-04-12T08:08:48;8.91;83.85
66740;DHT22;53653;52.188;8.602;2023-04-12T08:11:13;8.92;83.20
66740;DHT22;53653;52.188;8.602;2023-04-12T08:13:39;8.89;83.35
66740;DHT22;53653;52.188;8.602;2023-04-12T08:16:05;8.88;84.29
66740;DHT22;53653;52.188;8.602;2023-04-12T08:18:31;8.91;83.98
66740;DHT22;53653;52.188;8.602;2023-04-12T08:20:57;8.88;84.72
66740;DHT22;53653;52.188;8.602;2023-04-12T08:23:22;8.93;84.77
66740;DHT22;53653;52.188;8.602;2023-04-12T08:25:49;8.91;85.00
66740;DHT22;53653;52.188;8.602;2023-04-12T08:28:15;8.99;84.14
66740;DHT22;53653;52.188;8.602;2023-04-12T08:30:41;9.11;84.85
66740;DHT22;53653;52.188;8.602;2023-04-12T08:33:07;9.02;85.79
66740;DHT22;53653;52.188;8.602;2023-04-12T08:35:32;9.08;85.34
66740;DHT22;53653;52.188;8.602;2023-04-12T08:37:59;9.03;85.17
66740;DHT22;53653;52.188;8.602;2023-04-12T08:40:31;8.89;85.25
66740;DHT22;53653;52.188;8.602;2023-04-12T08:43:00;8.88;86.20
66740;DHT22;53653;52.188;8.602;2023-04-12T08:45:28;8.79;85.59
66740;DHT22;53653;52.188;8.602;2023-04-12T08:47:54;8.85;87.02
66740;DHT22;53653;52.188;8.602;2023-04-12T08:50:20;8.88;85.93
66740;DHT22;53653;52.188;8.602;2023-04-12T08:52:47;8.92;86.08
66740;DHT22;53653;52.188;8.602;2023-04-12T08:55:13;8.99;85.54
66740;DHT22;53653;52.188;8.602;2023-04-12T08:57:40;9.13;86.15
66740;DHT22;53653;52.188;8.602;2023-04-12T09:00:06;9.30;85.05
66740;DHT22;53653;52.188;8.602;2023-04-12T09:02:35;9.24;85.07
66740;DHT22;53653;52.188;8.602;2023-04-12T09:05:00;9.11;85.83
66740;DHT22;53653;52.188;8.602;2023-04-12T09:07:26;9.08;85.38
66740;DHT22;53653;52.188;8.602;2023-04-12T09:09:54;9.22;85.67
66740;DHT22;53653;52.188;8.602;2023-04-12T09:12:20;9.37;85.49
66740;DHT22;53653;52.188;8.602;2023-04-12T09:15:04;9.37;86.24
66740;DHT22;53653;52.188;8.602;2023-04-12T09:17:32;9.37;85.09
66740;DHT22;53653;52.188;8.602;2023-04-12T09:20:01;9.53;84.91
66740;DHT22;53653;52.188;8.602;2023-04-12T09:22:36;9.57;84.30
66740;DHT22;53653;52.188;8.602;2023-04-12T09:25:03;9.53;85.49
66740;DHT22;53653;52.188;8.602;2023-04-12T09:27:28;9.46;86.22
66740;DHT22;53653;52.188;8.602;2023-04-12T09:30:07;9.43;86.47
66740;DHT22;53653;52.188;8.602;2023-04-12T09:32:33;9.36;85.60
66740;DHT22;53653;52.188;8.602;2023-04-12T09:34:59;9.32;84.24
66740;DHT22;53653;52.188;8.602;2023-04-12T09:37:25;9.65;85.48
66740;DHT22;53653;52.188;8.602;2023-04-12T09:42:24;9.64;84.83
66740;DHT22;53653;52.188;8.602;2023-04-12T09:44:49;9.80;84.80
66740;DHT22;53653;52.188;8.602;2023-04-12T09:47:15;9.81;83.71
66740;DHT22;53653;52.188;8.602;2023-04-12T09:49:42;9.81;83.41
66740;DHT22;53653;52.188;8.602;2023-04-12T09:52:10;9.81;85.41
66740;DHT22;53653;52.188;8.602;2023-04-12T09:54:40;9.69;84.21
66740;DHT22;53653;52.188;8.602;2023-04-12T09:57:07;9.81;84.15
66740;DHT22;53653;52.188;8.602;2023-04-12T09:59:38;9.74;83.27
66740;DHT22;53653;52.188;8.602;2023-04-12T10:02:15;9.75;83.25
66740;DHT22;53653;52.188;8.602;2023-04-12T10:04:42;9.99;83.73
66740;DHT22;53653;52.188;8.602;2023-04-12T10:07:08;10.18;82.54
66740;DHT22;53653;52.188;8.602;2023-04-12T10:09:37;10.39;82.10
66740;DHT22;53653;52.188;8.602;2023-04-12T10:12:03;10.68;81.86
66740;DHT22;53653;52.188;8.602;2023-04-12T10:14:29;10.59;82.06
66740;DHT22;53653;52.188;8.602;2023-04-12T10:16:56;10.48;81.87
66740;DHT22;53653;52.188;8.602;2023-04-12T10:19:25;10.30;82.42
66740;DHT22;53653;52.188;8.602;2023-04-12T10:21:51;10.55;81.62
66740;DHT22;53653;52.188;8.602;2023-04-12T10:24:20;10.48;81.10
66740;DHT22;53653;52.188;8.602;2023-04-12T10:26:47;10.48;80.31
66740;DHT22;53653;52.188;8.602;2023-04-12T10:29:25;10.53;81.54
66740;DHT22;53653;52.188;8.602;2023-04-12T10:31:52;10.43;80.74
66740;DHT22;53653;52.188;8.602;2023-04-12T10:34:23;10.29;82.12
66740;DHT22;53653;52.188;8.602;2023-04-12T10:36:50;10.23;82.02
66740;DHT22;53653;52.188;8.602;2023-04-12T10:39:16;10.40;82.78
66740;DHT22;53653;52.188;8.602;2023-04-12T10:42:16;10.28;81.85
66740;DHT22;53653;52.188;8.602;2023-04-12T10:44:47;10.29;82.06
66740;DHT22;53653;52.188;8.602;2023-04-12T10:47:13;10.40;82.52
66740;DHT22;53653;52.188;8.602;2023-04-12T10:49:39;10.48;81.73
66740;DHT22;53653;52.188;8.602;2023-04-12T10:54:34;10.38;83.50
66740;DHT22;53653;52.188;8.602;2023-04-12T10:57:01;10.45;83.06
66740;DHT22;53653;52.188;8.602;2023-04-12T10:59:53;10.48;84.22
66740;DHT22;53653;52.188;8.602;2023-04-12T11:02:21;10.67;83.86
66740;DHT22;53653;52.188;8.602;2023-04-12T11:05:07;10.78;83.65
66740;DHT22;53653;52.188;8.602;2023-04-12T11:08:03;10.66;82.16
66740;DHT22;53653;52.188;8.602;2023-04-12T11:10:40;10.68;83.12
66740;DHT22;53653;52.188;8.602;2023-04-12T11:13:09;10.46;81.63
66740;DHT22;53653;52.188;8.602;2023-04-12T11:15:37;10.56;82.31
66740;DHT22;53653;52.188;8.602;2023-04-12T11:18:10;10.59;82.16
66740;DHT22;53653;52.188;8.602;2023-04-12T11:20:38;10.70;82.62
66740;DHT22;53653;52.188;8.602;2023-04-12T11:23:04;10.71;83.85
66740;DHT22;53653;52.188;8.602;2023-04-12T11:25:30;10.66;83.68
66740;DHT22;53653;52.188;8.602;2023-04-12T11:27:56;10.77;84.63
66740;DHT22;53653;52.188;8.602;2023-04-12T11:30:25;10.81;83.74
66740;DHT22;53653;52.188;8.602;2023-04-12T11:32:50;11.01;84.35
66740;DHT22;53653;52.188;8.602;2023-04-12T11:35:16;11.01;83.82
66740;DHT22;53653;52.188;8.602;2023-04-12T11:37:44;10.94;84.56
66740;DHT22;53653;52.188;8.602;2023-04-12T11:40:10;11.11;85.01
66740;DHT22;53653;52.188;8.602;2023-04-12T11:42:38;11.29;84.52
66740;DHT22;53653;52.188;8.602;2023-04-12T11:45:04;11.24;83.69
66740;DHT22;53653;52.188;8.602;2023-04-12T11:47:31;10.93;83.69
66740;DHT22;53653;52.188;8.602;2023-04-12T11:49:57;10.88;82.43
66740;DHT22;53653;52.188;8.602;2023-04-12T11:52:31;10.66;83.21
66740;DHT22;53653;52.188;8.602;2023-04-12T11:55:00;10.64;84.64
66740;DHT22;53653;52.188;8.602;2023-04-12T11:57:26;10.56;83.73
66740;DHT22;53653;52.188;8.602;2023-04-12T11:59:56;10.64;84.83
66740;DHT22;53653;52.188;8.602;2023-04-12T12:02:21;10.90;83.95
66740;DHT22;53653;52.188;8.602;2023-04-12T12:04:47;10.93;83.39
66740;DHT22;53653;52.188;8.602;2023-04-12T12:07:15;11.04;82.93
66740;DHT22;53653;52.188;8.602;2023-04-12T12:09:42;11.29;84.00
66740;DHT22;53653;52.188;8.602;2023-04-12T12:12:10;11.38;83.14
66740;DHT22;53653;52.188;8.602;2023-04-12T12:14:35;11.43;82.52
66740;DHT22;53653;52.188;8.602;2023-04-12T12:17:08;11.42;81.94
66740;DHT22;53653;52.188;8.602;2023-04-12T12:19:40;11.56;80.70
66740;DHT22;53653;52.188;8.602;2023-04-12T12:22:12;11.53;81.32
66740;DHT22;53653;52.188;8.602;2023-04-12T12:24:44;11.32;81.40
66740;DHT22;53653;52.188;8.602;2023-04-12T12:27:10;11.19;82.44
66740;DHT22;53653;52.188;8.602;2023-04-12T12:29:36;11.21;83.37
66740;DHT22;53653;52.188;8.602;2023-04-12T12:32:09;11.24;82.51
66740;DHT22;53653;52.188;8.602;2023-04-12T12:34:35;11.22;82.73
66740;DHT22;53653;52.188;8.602;2023-04-12T12:37:01;11.08;83.37
66740;DHT22;53653;52.188;8.602;2023-04-12T12:39:26;11.01;82.38
66740;DHT22;53653;52.188;8.602;2023-04-12T12:41:53;11.01;83.21
66740;DHT22;53653;52.188;8.602;2023-04-12T12:44:23;11.05;82.61
66740;DHT22;53653;52.188;8.602;2023-04-12T12:46:48;11.05;83.69
66740;DHT22;53653;52.188;8.602;2023-04-12T12:49:14;11.12;83.79
66740;DHT22;53653;52.188;8.602;2023-04-12T12:51:41;11.25;83.82
66740;DHT22;53653;52.188;8.602;2023-04-12T12:54:07;11.42;83.53
66740;DHT22;53653;52.188;8.602;2023-04-12T12:56:33;11.43;83.20
66740;DHT22;53653;52.188;8.602;2023-04-12T12:59:00;11.36;83.08
66740;DHT22;53653;52.188;8.602;2023-04-12T13:01:26;11.35;83.66
66740;DHT22;53653;52.188;8.602;2023-04-12T13:03:52;11.24;83.39
66740;DHT22;53653;52.188;8.602;2023-04-12T13:06:17;11.36;83.32
66740;DHT22;53653;52.188;8.602;2023-04-12T13:08:43;11.38;83.34
66740;DHT22;53653;52.188;8.602;2023-04-12T13:11:08;11.32;83.65
66740;DHT22;53653;52.188;8.602;2023-04-12T13:13:34;11.36;84.29
66740;DHT22;53653;52.188;8.602;2023-04-12T13:15:59;11.59;83.94
66740;DHT22;53653;52.188;8.602;2023-04-12T13:18:25;11.82;83.58
66740;DHT22;53653;52.188;8.602;2023-04-12T13:20:51;11.98;82.39
66740;DHT22;53653;52.188;8.602;2023-04-12T13:23:16;11.90;82.85
66740;DHT22;53653;52.188;8.602;2023-04-12T13:25:41;11.79;82.99
66740;DHT22;53653;52.188;8.602;2023-04-12T13:28:07;11.82;83.11
66740;DHT22;53653;52.188;8.602;2023-04-12T13:30:32;11.66;82.63
66740;DHT22;53653;52.188;8.602;2023-04-12T13:32:58;11.51;82.72
66740;DHT22;53653;52.188;8.602;2023-04-12T13:35:23;11.38;83.70
66740;DHT22;53653;52.188;8.602;2023-04-12T13:37:49;11.46;84.05
66740;DHT22;53653;52.188;8.602;2023-04-12T13:40:14;11.63;83.65
66740;DHT22;53653;52.188;8.602;2023-04-12T13:42:40;11.66;83.52
66740;DHT22;53653;52.188;8.602;2023-04-12T13:45:06;11.62;83.79
66740;DHT22;53653;52.188;8.602;2023-04-12T13:47:32;11.53;84.39
66740;DHT22;53653;52.188;8.602;2023-04-12T13:49:59;11.53;83.83
66740;DHT22;53653;52.188;8.602;2023-04-12T13:52:25;11.56;84.38
66740;DHT22;53653;52.188;8.602;2023-04-12T13:54:51;11.52;85.27
66740;DHT22;53653;52.188;8.602;2023-04-12T13:57:16;11.65;85.31
66740;DHT22;53653;52.188;8.602;2023-04-12T13:59:42;11.72;85.39
66740;DHT22;53653;52.188;8.602;2023-04-12T14:02:07;11.76;85.52
66740;DHT22;53653;52.188;8.602;2023-04-12T14:04:33;11.70;84.86
66740;DHT22;53653;52.188;8.602;2023-04-12T14:06:59;11.76;85.28
66740;DHT22;53653;52.188;8.602;2023-04-12T14:09:29;11.91;84.53
66740;DHT22;53653;52.188;8.602;2023-04-12T14:11:57;11.93;84.32
66740;DHT22;53653;52.188;8.602;2023-04-12T14:14:24;12.01;84.09
66740;DHT22;53653;52.188;8.602;2023-04-12T14:16:50;11.97;82.52
66740;DHT22;53653;52.188;8.602;2023-04-12T14:19:18;11.84;81.72
66740;DHT22;53653;52.188;8.602;2023-04-12T14:21:43;11.86;81.21
66740;DHT22;53653;52.188;8.602;2023-04-12T14:24:09;11.82;81.59
66740;DHT22;53653;52.188;8.602;2023-04-12T14:26:35;12.03;80.58
66740;DHT22;53653;52.188;8.602;2023-04-12T14:29:00;12.20;80.39
66740;DHT22;53653;52.188;8.602;2023-04-12T14:31:26;12.42;79.17
66740;DHT22;53653;52.188;8.602;2023-04-12T14:33:52;12.51;79.12
66740;DHT22;53653;52.188;8.602;2023-04-12T14:36:17;12.62;78.88
66740;DHT22;53653;52.188;8.602;2023-04-12T14:38:43;12.38;78.20
66740;DHT22;53653;52.188;8.602;2023-04-12T14:41:10;12.18;79.12
66740;DHT22;53653;52.188;8.602;2023-04-12T14:43:35;12.11;79.30
66740;DHT22;53653;52.188;8.602;2023-04-12T14:46:01;12.16;79.67
66740;DHT22;53653;52.188;8.602;2023-04-12T14:48:26;12.14;79.95
66740;DHT22;53653;52.188;8.602;2023-04-12T14:50:52;12.10;80.29
66740;DHT22;53653;52.188;8.602;2023-04-12T14:53:20;12.11;80.96
66740;DHT22;53653;52.188;8.602;2023-04-12T14:55:46;12.11;80.36
66740;DHT22;53653;52.188;8.602;2023-04-12T14:58:12;12.24;80.90
66740;DHT22;53653;52.188;8.602;2023-04-12T15:00:38;12.38;80.38
66740;DHT22;53653;52.188;8.602;2023-04-12T15:03:04;12.48;80.20
66740;DHT22;53653;52.188;8.602;2023-04-12T15:05:32;12.53;78.95
66740;DHT22;53653;52.188;8.602;2023-04-12T15:07:57;12.52;78.00
66740;DHT22;53653;52.188;8.602;2023-04-12T15:10:24;12.34;78.24
66740;DHT22;53653;52.188;8.602;2023-04-12T15:12:49;12.41;78.52
66740;DHT22;53653;52.188;8.602;2023-04-12T15:15:15;12.52;78.35
66740;DHT22;53653;52.188;8.602;2023-04-12T15:17:41;12.58;78.54
66740;DHT22;53653;52.188;8.602;2023-04-12T15:20:07;12.79;78.03
66740;DHT22;53653;52.188;8.602;2023-04-12T15:22:40;12.99;77.58
66740;DHT22;53653;52.188;8.602;2023-04-12T15:25:06;13.26;77.22
66740;DHT22;53653;52.188;8.602;2023-04-12T15:27:32;13.31;76.68
66740;DHT22;53653;52.188;8.602;2023-04-12T15:29:58;13.43;75.38
66740;DHT22;53653;52.188;8.602;2023-04-12T15:32:25;13.38;75.23
66740;DHT22;53653;52.188;8.602;2023-04-12T15:34:52;13.41;73.56
66740;DHT22;53653;52.188;8.602;2023-04-12T15:37:19;13.47;74.44
66740;DHT22;53653;52.188;8.602;2023-04-12T15:39:45;13.47;74.11
66740;DHT22;53653;52.188;8.602;2023-04-12T15:42:11;13.36;73.59
66740;DHT22;53653;52.188;8.602;2023-04-12T15:44:37;13.26;73.40
66740;DHT22;53653;52.188;8.602;2023-04-12T15:47:02;13.20;73.46
66740;DHT22;53653;52.188;8.602;2023-04-12T15:49:28;13.11;73.41
66740;DHT22;53653;52.188;8.602;2023-04-12T15:51:54;13.02;73.96
66740;DHT22;53653;52.188;8.602;2023-04-12T15:54:22;13.03;74.25
66740;DHT22;53653;52.188;8.602;2023-04-12T15:56:48;13.06;73.26
66740;DHT22;53653;52.188;8.602;2023-04-12T15:59:15;13.07;72.73